sensor_id;sensor_type;location;lat;lon;timestamp;temperature;humidity
30001;DHT22;16845;48.670;9.000;2023-04-24T00:01:48;10.30;99.90
30001;DHT22;16845;48.670;9.000;2023-04-24T00:04:16;10.20;99.90
30001;DHT22;16845;48.670;9.000;2023-04-24T00:06:43;10.20;99.90
30001;DHT22;16845;48.670;9.000;2023-04-24T00:09:10;10.20;99.90
30001;DHT22;16845;48.670;9.000;2023-04-24T00:11:37;10.20;99.90
30001;DHT22;16845;48.670;9.000;2023-04-24T00:14:04;10.20;99.90
30001;DHT22;16845;48.670;9.000;2023-04-24T00:16:31;10.20;99.90
30001;DHT22;16845;48.670;9.000;2023-04-24T00:18:57;10.10;99.90
30001;DHT22;16845;48.670;9.000;2023-04-24T00:21:25;10.20;99.90
30001;DHT22;16845;48.670;9.000;2023-04-24T00:23:52;10.20;99.90
30001;DHT22;16845;48.670;9.000;2023-04-24T00:26:19;10.20;99.90
30001;DHT22;16845;48.670;9.000;2023-04-24T00:28:46;10.20;99.90
30001;DHT22;16845;48.670;9.000;2023-04-24T00:31:13;10.30;99.90
30001;DHT22;16845;48.670;9.000;2023-04-24T00:33:39;10.40;99.90
30001;DHT22;16845;48.670;9.000;2023-04-24T00:36:06;10.40;99.90
30001;DHT22;16845;48.670;9.000;2023-04-24T00:38:34;10.30;99.90
30001;DHT22;16845;48.670;9.000;2023-04-24T00:41:01;10.30;99.90
30001;DHT22;16845;48.670;9.000;2023-04-24T00:43:28;10.40;99.90
30001;DHT22;16845;48.670;9.000;2023-04-24T00:45:54;10.40;99.90
30001;DHT22;16845;48.670;9.000;2023-04-24T00:48:21;10.40;99.90
30001;DHT22;16845;48.670;9.000;2023-04-24T00:50:49;10.40;99.90
30001;DHT22;16845;48.670;9.000;2023-04-24T00:53:16;10.40;99.90
30001;DHT22;16845;48.670;9.000;2023-04-24T00:55:44;10.40;99.90
30001;DHT22;16845;48.670;9.000;2023-04-24T00:58:11;10.40;99.90
30001;DHT22;16845;48.670;9.000;2023-04-24T01:00:38;10.40;99.90
30001;DHT22;16845;48.670;9.000;2023-04-24T01:03:05;10.40;99.90
30001;DHT22;16845;48.670;9.000;2023-04-24T01:05:33;10.40;99.90
30001;DHT22;16845;48.670;9.000;2023-04-24T01:08:01;10.40;99.90
30001;DHT22;16845;48.670;9.000;2023-04-24T01:10:29;10.40;99.90
30001;DHT22;16845;48.670;9.000;2023-04-24T01:12:59;10.50;99.90
30001;DHT22;16845;48.670;9.000;2023-04-24T01:15:26;10.40;99.90
30001;DHT22;16845;48.670;9.000;2023-04-24T01:17:52;10.50;99.90
30001;DHT22;16845;48.670;9.000;2023-04-24T01:20:19;10.40;99.90
30001;DHT22;16845;48.670;9.000;2023-04-24T01:22:48;10.40;99.90
30001;DHT22;16845;48.670;9.000;2023-04-24T01:25:14;10.40;99.90
30001;DHT22;16845;48.670;9.000;2023-04-24T01:27:41;10.50;99.90
30001;DHT22;16845;48.670;9.000;2023-04-24T01:30:09;10.50;99.90
30001;DHT22;16845;48.670;9.000;2023-04-24T01:32:37;10.50;99.90
30001;DHT22;16845;48.670;9.000;2023-04-24T01:35:05;10.50;99.90
30001;DHT22;16845;48.670;9.000;2023-04-24T01:37:32;10.50;99.90
30001;DHT22;16845;48.670;9.000;2023-04-24T01:40:00;10.50;99.90
30001;DHT22;16845;48.670;9.000;2023-04-24T01:42:27;10.40;99.90
30001;DHT22;16845;48.670;9.000;2023-04-24T01:44:54;10.40;99.90
30001;DHT22;16845;48.670;9.000;2023-04-24T01:47:21;10.40;99.90
30001;DHT22;16845;48.670;9.000;2023-04-24T01:49:48;10.30;99.90
30001;DHT22;16845;48.670;9.000;2023-04-24T01:52:16;10.20;99.90
30001;DHT22;16845;48.670;9.000;2023-04-24T01:54:43;10.10;99.90
30001;DHT22;16845;48.670;9.000;2023-04-24T01:57:11;10.00;99.90
30001;DHT22;16845;48.670;9.000;2023-04-24T01:59:37;10.00;99.90
30001;DHT22;16845;48.670;9.000;2023-04-24T02:02:04;9.90;99.90
30001;DHT22;16845;48.670;9.000;2023-04-24T02:04:31;9.90;99.90
30001;DHT22;16845;48.670;9.000;2023-04-24T02:06:58;9.90;99.90
30001;DHT22;16845;48.670;9.000;2023-04-24T02:09:25;9.90;99.90
30001;DHT22;16845;48.670;9.000;2023-04-24T02:11:51;9.90;99.90
30001;DHT22;16845;48.670;9.000;2023-04-24T02:14:19;9.80;99.90
30001;DHT22;16845;48.670;9.000;2023-04-24T02:16:46;9.80;99.90
30001;DHT22;16845;48.670;9.000;2023-04-24T02:19:13;9.80;99.90
30001;DHT22;16845;48.670;9.000;2023-04-24T02:21:40;9.80;99.90
30001;DHT22;16845;48.670;9.000;2023-04-24T02:24:06;9.80;99.90
30001;DHT22;16845;48.670;9.000;2023-04-24T02:26:33;9.80;99.90
30001;DHT22;16845;48.670;9.000;2023-04-24T02:29:00;9.80;99.90
30001;DHT22;16845;48.670;9.000;2023-04-24T02:31:29;9.80;99.90
30001;DHT22;16845;48.670;9.000;2023-04-24T02:33:56;9.80;99.90
30001;DHT22;16845;48.670;9.000;2023-04-24T02:36:23;9.80;99.90
30001;DHT22;16845;48.670;9.000;2023-04-24T02:38:49;9.80;99.90
30001;DHT22;16845;48.670;9.000;2023-04-24T02:41:16;9.70;99.90
30001;DHT22;16845;48.670;9.000;2023-04-24T02:43:43;9.80;99.90
30001;DHT22;16845;48.670;9.000;2023-04-24T02:46:10;9.80;99.90
30001;DHT22;16845;48.670;9.000;2023-04-24T02:48:38;9.80;99.90
30001;DHT22;16845;48.670;9.000;2023-04-24T02:51:05;9.80;99.90
30001;DHT22;16845;48.670;9.000;2023-04-24T02:53:31;9.80;99.90
30001;DHT22;16845;48.670;9.000;2023-04-24T02:55:58;9.80;99.90
30001;DHT22;16845;48.670;9.000;2023-04-24T02:58:25;9.80;99.90
30001;DHT22;16845;48.670;9.000;2023-04-24T03:00:53;9.80;99.90
30001;DHT22;16845;48.670;9.000;2023-04-24T03:03:20;9.80;99.90
30001;DHT22;16845;48.670;9.000;2023-04-24T03:05:48;9.70;99.90
30001;DHT22;16845;48.670;9.000;2023-04-24T03:08:15;9.70;99.90
30001;DHT22;16845;48.670;9.000;2023-04-24T03:10:42;9.80;99.90
30001;DHT22;16845;48.670;9.000;2023-04-24T03:13:10;9.70;99.90
30001;DHT22;16845;48.670;9.000;2023-04-24T03:15:37;9.70;99.90
30001;DHT22;16845;48.670;9.000;2023-04-24T03:18:03;9.70;99.90
30001;DHT22;16845;48.670;9.000;2023-04-24T03:20:30;9.70;99.90
30001;DHT22;16845;48.670;9.000;2023-04-24T03:22:58;9.70;99.90
30001;DHT22;16845;48.670;9.000;2023-04-24T03:25:25;9.70;99.90
30001;DHT22;16845;48.670;9.000;2023-04-24T03:27:52;9.70;99.90
30001;DHT22;16845;48.670;9.000;2023-04-24T03:30:19;9.70;99.90
30001;DHT22;16845;48.670;9.000;2023-04-24T03:32:45;9.70;99.90
30001;DHT22;16845;48.670;9.000;2023-04-24T03:35:12;9.70;99.90
30001;DHT22;16845;48.670;9.000;2023-04-24T03:37:39;9.60;99.90
30001;DHT22;16845;48.670;9.000;2023-04-24T03:40:08;9.50;99.90
30001;DHT22;16845;48.670;9.000;2023-04-24T03:42:35;9.50;99.90
30001;DHT22;16845;48.670;9.000;2023-04-24T03:45:05;9.50;99.90
30001;DHT22;16845;48.670;9.000;2023-04-24T03:47:32;9.40;99.90
30001;DHT22;16845;48.670;9.000;2023-04-24T03:49:59;9.30;99.90
30001;DHT22;16845;48.670;9.000;2023-04-24T03:52:26;9.40;99.90
30001;DHT22;16845;48.670;9.000;2023-04-24T03:54:53;9.30;99.90
30001;DHT22;16845;48.670;9.000;2023-04-24T03:57:21;9.30;99.90
30001;DHT22;16845;48.670;9.000;2023-04-24T03:59:47;9.20;99.90
30001;DHT22;16845;48.670;9.000;2023-04-24T04:02:14;9.30;99.90
30001;DHT22;16845;48.670;9.000;2023-04-24T04:04:41;9.30;99.90
30001;DHT22;16845;48.670;9.000;2023-04-24T04:07:08;9.30;99.90
30001;DHT22;16845;48.670;9.000;2023-04-24T04:09:35;9.40;99.90
30001;DHT22;16845;48.670;9.000;2023-04-24T04:12:02;9.30;99.90
30001;DHT22;16845;48.670;9.000;2023-04-24T04:14:30;9.40;99.90
30001;DHT22;16845;48.670;9.000;2023-04-24T04:16:56;9.40;99.90
30001;DHT22;16845;48.670;9.000;2023-04-24T04:19:23;9.50;99.90
30001;DHT22;16845;48.670;9.000;2023-04-24T04:21:50;9.50;99.90
30001;DHT22;16845;48.670;9.000;2023-04-24T04:24:17;9.50;99.90
30001;DHT22;16845;48.670;9.000;2023-04-24T04:26:43;9.60;99.90
30001;DHT22;16845;48.670;9.000;2023-04-24T04:29:10;9.50;99.90
30001;DHT22;16845;48.670;9.000;2023-04-24T04:31:38;9.50;99.90
30001;DHT22;16845;48.670;9.000;2023-04-24T04:34:05;9.30;99.90
30001;DHT22;16845;48.670;9.000;2023-04-24T04:36:32;9.20;99.90
30001;DHT22;16845;48.670;9.000;2023-04-24T04:38:59;9.00;99.90
30001;DHT22;16845;48.670;9.000;2023-04-24T04:41:26;8.90;99.90
30001;DHT22;16845;48.670;9.000;2023-04-24T04:43:52;8.70;99.90
30001;DHT22;16845;48.670;9.000;2023-04-24T04:46:19;8.70;99.90
30001;DHT22;16845;48.670;9.000;2023-04-24T04:48:47;8.60;99.90
30001;DHT22;16845;48.670;9.000;2023-04-24T04:51:14;8.60;99.90
30001;DHT22;16845;48.670;9.000;2023-04-24T04:53:41;8.50;99.90
30001;DHT22;16845;48.670;9.000;2023-04-24T04:56:07;8.50;99.90
30001;DHT22;16845;48.670;9.000;2023-04-24T04:58:34;8.40;99.90
30001;DHT22;16845;48.670;9.000;2023-04-24T05:01:01;8.40;99.90
30001;DHT22;16845;48.670;9.000;2023-04-24T05:03:28;8.40;99.90
30001;DHT22;16845;48.670;9.000;2023-04-24T05:05:57;8.40;99.90
30001;DHT22;16845;48.670;9.000;2023-04-24T05:08:24;8.50;99.90
30001;DHT22;16845;48.670;9.000;2023-04-24T05:10:53;8.40;99.90
30001;DHT22;16845;48.670;9.000;2023-04-24T05:13:20;8.50;99.90
30001;DHT22;16845;48.670;9.000;2023-04-24T05:16:01;8.50;99.90
30001;DHT22;16845;48.670;9.000;2023-04-24T05:18:28;8.50;99.90
30001;DHT22;16845;48.670;9.000;2023-04-24T05:20:56;8.50;99.90
30001;DHT22;16845;48.670;9.000;2023-04-24T05:23:23;8.60;99.90
30001;DHT22;16845;48.670;9.000;2023-04-24T05:25:50;8.60;99.90
30001;DHT22;16845;48.670;9.000;2023-04-24T05:28:17;8.60;99.90
30001;DHT22;16845;48.670;9.000;2023-04-24T05:30:44;8.60;99.90
30001;DHT22;16845;48.670;9.000;2023-04-24T05:33:11;8.70;99.90
30001;DHT22;16845;48.670;9.000;2023-04-24T05:35:37;8.70;99.90
30001;DHT22;16845;48.670;9.000;2023-04-24T05:38:05;8.80;99.90
30001;DHT22;16845;48.670;9.000;2023-04-24T05:40:32;8.90;99.90
30001;DHT22;16845;48.670;9.000;2023-04-24T05:42:59;9.00;99.90
30001;DHT22;16845;48.670;9.000;2023-04-24T05:45:26;9.00;99.90
30001;DHT22;16845;48.670;9.000;2023-04-24T05:47:52;9.00;99.90
30001;DHT22;16845;48.670;9.000;2023-04-24T05:50:19;9.00;99.90
30001;DHT22;16845;48.670;9.000;2023-04-24T05:52:46;9.00;99.90
30001;DHT22;16845;48.670;9.000;2023-04-24T05:55:14;8.90;99.90
30001;DHT22;16845;48.670;9.000;2023-04-24T05:57:41;8.80;99.90
30001;DHT22;16845;48.670;9.000;2023-04-24T06:00:09;8.70;99.90
30001;DHT22;16845;48.670;9.000;2023-04-24T06:02:36;8.60;99.90
30001;DHT22;16845;48.670;9.000;2023-04-24T06:05:03;8.60;99.90
30001;DHT22;16845;48.670;9.000;2023-04-24T06:07:31;8.70;99.90
30001;DHT22;16845;48.670;9.000;2023-04-24T06:09:57;8.70;99.90
30001;DHT22;16845;48.670;9.000;2023-04-24T06:12:25;8.70;99.90
30001;DHT22;16845;48.670;9.000;2023-04-24T06:14:52;9.00;99.90
30001;DHT22;16845;48.670;9.000;2023-04-24T06:17:19;9.30;99.90
30001;DHT22;16845;48.670;9.000;2023-04-24T06:19:46;9.70;99.90
30001;DHT22;16845;48.670;9.000;2023-04-24T06:22:12;10.00;99.90
30001;DHT22;16845;48.670;9.000;2023-04-24T06:24:39;10.30;99.90
30001;DHT22;16845;48.670;9.000;2023-04-24T06:27:06;10.60;99.90
30001;DHT22;16845;48.670;9.000;2023-04-24T06:29:35;10.90;99.90
30001;DHT22;16845;48.670;9.000;2023-04-24T06:32:02;11.20;99.90
30001;DHT22;16845;48.670;9.000;2023-04-24T06:34:29;11.30;99.90
30001;DHT22;16845;48.670;9.000;2023-04-24T06:36:56;11.50;99.90
30001;DHT22;16845;48.670;9.000;2023-04-24T06:39:22;11.80;99.90
30001;DHT22;16845;48.670;9.000;2023-04-24T06:41:49;12.10;99.90
30001;DHT22;16845;48.670;9.000;2023-04-24T06:44:16;12.50;99.90
30001;DHT22;16845;48.670;9.000;2023-04-24T06:46:44;13.00;99.90
30001;DHT22;16845;48.670;9.000;2023-04-24T06:49:11;13.30;99.90
30001;DHT22;16845;48.670;9.000;2023-04-24T06:51:38;13.40;99.90
30001;DHT22;16845;48.670;9.000;2023-04-24T06:54:04;13.30;99.90
30001;DHT22;16845;48.670;9.000;2023-04-24T06:56:31;12.80;99.90
30001;DHT22;16845;48.670;9.000;2023-04-24T06:58:58;12.70;99.90
30001;DHT22;16845;48.670;9.000;2023-04-24T07:01:25;12.30;99.90
30001;DHT22;16845;48.670;9.000;2023-04-24T07:03:53;12.10;99.90
30001;DHT22;16845;48.670;9.000;2023-04-24T07:06:20;11.80;99.90
30001;DHT22;16845;48.670;9.000;2023-04-24T07:08:47;11.60;99.90
30001;DHT22;16845;48.670;9.000;2023-04-24T07:11:13;11.20;99.90
30001;DHT22;16845;48.670;9.000;2023-04-24T07:13:40;10.70;99.90
30001;DHT22;16845;48.670;9.000;2023-04-24T07:16:07;10.60;99.90
30001;DHT22;16845;48.670;9.000;2023-04-24T07:18:34;10.30;99.90
30001;DHT22;16845;48.670;9.000;2023-04-24T07:21:02;10.10;99.90
30001;DHT22;16845;48.670;9.000;2023-04-24T07:23:29;10.00;99.90
30001;DHT22;16845;48.670;9.000;2023-04-24T07:25:56;10.10;99.90
30001;DHT22;16845;48.670;9.000;2023-04-24T07:28:23;10.50;99.90
30001;DHT22;16845;48.670;9.000;2023-04-24T07:30:49;11.30;99.90
30001;DHT22;16845;48.670;9.000;2023-04-24T07:33:16;12.20;99.90
30001;DHT22;16845;48.670;9.000;2023-04-24T07:35:43;12.80;99.90
30001;DHT22;16845;48.670;9.000;2023-04-24T07:38:11;13.10;99.90
30001;DHT22;16845;48.670;9.000;2023-04-24T07:40:38;13.50;99.90
30001;DHT22;16845;48.670;9.000;2023-04-24T07:43:05;14.10;99.90
30001;DHT22;16845;48.670;9.000;2023-04-24T07:45:31;14.50;99.90
30001;DHT22;16845;48.670;9.000;2023-04-24T07:47:58;14.30;99.90
30001;DHT22;16845;48.670;9.000;2023-04-24T07:50:25;13.70;99.90
30001;DHT22;16845;48.670;9.000;2023-04-24T07:52:51;12.80;99.90
30001;DHT22;16845;48.670;9.000;2023-04-24T07:55:19;12.90;99.90
30001;DHT22;16845;48.670;9.000;2023-04-24T07:57:51;13.00;99.90
30001;DHT22;16845;48.670;9.000;2023-04-24T08:00:18;13.30;99.90
30001;DHT22;16845;48.670;9.000;2023-04-24T08:02:45;13.30;99.90
30001;DHT22;16845;48.670;9.000;2023-04-24T08:05:12;13.50;99.90
30001;DHT22;16845;48.670;9.000;2023-04-24T08:07:39;13.70;99.90
30001;DHT22;16845;48.670;9.000;2023-04-24T08:10:07;13.60;99.90
30001;DHT22;16845;48.670;9.000;2023-04-24T08:12:35;13.20;99.90
30001;DHT22;16845;48.670;9.000;2023-04-24T08:15:02;12.70;99.90
30001;DHT22;16845;48.670;9.000;2023-04-24T08:17:29;12.30;99.90
30001;DHT22;16845;48.670;9.000;2023-04-24T08:19:56;12.50;99.90
30001;DHT22;16845;48.670;9.000;2023-04-24T08:22:23;13.00;99.90
30001;DHT22;16845;48.670;9.000;2023-04-24T08:24:50;13.60;99.90
30001;DHT22;16845;48.670;9.000;2023-04-24T08:27:16;14.60;99.90
30001;DHT22;16845;48.670;9.000;2023-04-24T08:29:45;15.80;99.90
30001;DHT22;16845;48.670;9.000;2023-04-24T08:32:11;16.70;99.90
30001;DHT22;16845;48.670;9.000;2023-04-24T08:34:38;16.20;99.90
30001;DHT22;16845;48.670;9.000;2023-04-24T08:37:05;15.30;99.90
30001;DHT22;16845;48.670;9.000;2023-04-24T08:39:31;14.10;99.90
30001;DHT22;16845;48.670;9.000;2023-04-24T08:41:59;13.00;99.90
30001;DHT22;16845;48.670;9.000;2023-04-24T08:44:26;12.30;99.90
30001;DHT22;16845;48.670;9.000;2023-04-24T08:46:55;11.90;99.90
30001;DHT22;16845;48.670;9.000;2023-04-24T08:49:24;11.80;99.90
30001;DHT22;16845;48.670;9.000;2023-04-24T08:51:52;11.90;99.90
30001;DHT22;16845;48.670;9.000;2023-04-24T08:54:19;11.60;99.90
30001;DHT22;16845;48.670;9.000;2023-04-24T08:56:48;11.70;99.90
30001;DHT22;16845;48.670;9.000;2023-04-24T08:59:15;11.80;99.90
30001;DHT22;16845;48.670;9.000;2023-04-24T09:01:43;13.00;99.90
30001;DHT22;16845;48.670;9.000;2023-04-24T09:04:12;14.30;99.90
30001;DHT22;16845;48.670;9.000;2023-04-24T09:06:42;15.70;99.90
30001;DHT22;16845;48.670;9.000;2023-04-24T09:09:11;16.00;99.90
30001;DHT22;16845;48.670;9.000;2023-04-24T09:11:37;15.70;99.90
30001;DHT22;16845;48.670;9.000;2023-04-24T09:14:05;15.80;99.90
30001;DHT22;16845;48.670;9.000;2023-04-24T09:16:33;16.90;99.90
30001;DHT22;16845;48.670;9.000;2023-04-24T09:19:02;18.00;99.90
30001;DHT22;16845;48.670;9.000;2023-04-24T09:21:33;18.30;99.60
30001;DHT22;16845;48.670;9.000;2023-04-24T09:24:01;18.10;97.90
30001;DHT22;16845;48.670;9.000;2023-04-24T09:26:29;17.90;98.10
30001;DHT22;16845;48.670;9.000;2023-04-24T09:28:56;18.00;97.20
30001;DHT22;16845;48.670;9.000;2023-04-24T09:31:23;17.50;97.40
30001;DHT22;16845;48.670;9.000;2023-04-24T09:34:00;17.50;98.10
30001;DHT22;16845;48.670;9.000;2023-04-24T09:36:30;16.80;99.50
30001;DHT22;16845;48.670;9.000;2023-04-24T09:39:00;17.10;98.30
30001;DHT22;16845;48.670;9.000;2023-04-24T09:41:27;18.30;98.90
30001;DHT22;16845;48.670;9.000;2023-04-24T09:43:54;20.30;96.80
30001;DHT22;16845;48.670;9.000;2023-04-24T09:46:28;21.80;94.50
30001;DHT22;16845;48.670;9.000;2023-04-24T09:48:55;21.30;92.40
30001;DHT22;16845;48.670;9.000;2023-04-24T09:51:33;19.50;91.00
30001;DHT22;16845;48.670;9.000;2023-04-24T09:54:02;17.70;93.70
30001;DHT22;16845;48.670;9.000;2023-04-24T09:56:32;16.50;95.40
30001;DHT22;16845;48.670;9.000;2023-04-24T09:59:04;15.70;96.70
30001;DHT22;16845;48.670;9.000;2023-04-24T10:01:33;15.30;96.80
30001;DHT22;16845;48.670;9.000;2023-04-24T10:04:00;15.30;97.00
30001;DHT22;16845;48.670;9.000;2023-04-24T10:06:33;16.00;96.30
30001;DHT22;16845;48.670;9.000;2023-04-24T10:09:02;18.00;95.70
30001;DHT22;16845;48.670;9.000;2023-04-24T10:11:29;18.90;93.20
30001;DHT22;16845;48.670;9.000;2023-04-24T10:13:56;19.00;93.90
30001;DHT22;16845;48.670;9.000;2023-04-24T10:16:24;20.70;92.40
30001;DHT22;16845;48.670;9.000;2023-04-24T10:18:50;21.20;90.90
30001;DHT22;16845;48.670;9.000;2023-04-24T10:21:17;19.80;91.30
30001;DHT22;16845;48.670;9.000;2023-04-24T10:23:45;18.70;92.60
30001;DHT22;16845;48.670;9.000;2023-04-24T10:26:13;18.00;92.70
30001;DHT22;16845;48.670;9.000;2023-04-24T10:28:41;16.20;94.00
30001;DHT22;16845;48.670;9.000;2023-04-24T10:31:09;15.30;95.30
30001;DHT22;16845;48.670;9.000;2023-04-24T10:33:37;15.10;95.60
30001;DHT22;16845;48.670;9.000;2023-04-24T10:36:05;15.80;96.50
30001;DHT22;16845;48.670;9.000;2023-04-24T10:38:32;16.60;95.70
30001;DHT22;16845;48.670;9.000;2023-04-24T10:41:07;16.50;95.90
30001;DHT22;16845;48.670;9.000;2023-04-24T10:43:36;16.00;96.70
30001;DHT22;16845;48.670;9.000;2023-04-24T10:46:04;16.10;97.20
30001;DHT22;16845;48.670;9.000;2023-04-24T10:48:32;15.90;97.20
30001;DHT22;16845;48.670;9.000;2023-04-24T10:50:59;15.80;96.40
30001;DHT22;16845;48.670;9.000;2023-04-24T10:53:28;14.90;96.80
30001;DHT22;16845;48.670;9.000;2023-04-24T10:55:58;14.10;98.10
30001;DHT22;16845;48.670;9.000;2023-04-24T10:58:39;13.70;98.20
30001;DHT22;16845;48.670;9.000;2023-04-24T11:01:07;13.80;98.00
30001;DHT22;16845;48.670;9.000;2023-04-24T11:03:35;14.00;97.30
30001;DHT22;16845;48.670;9.000;2023-04-24T11:06:04;14.40;98.30
30001;DHT22;16845;48.670;9.000;2023-04-24T11:08:36;14.80;99.40
30001;DHT22;16845;48.670;9.000;2023-04-24T11:11:08;15.10;98.10
30001;DHT22;16845;48.670;9.000;2023-04-24T11:14:02;15.80;97.30
30001;DHT22;16845;48.670;9.000;2023-04-24T11:16:30;15.30;98.70
30001;DHT22;16845;48.670;9.000;2023-04-24T11:19:01;14.60;98.30
30001;DHT22;16845;48.670;9.000;2023-04-24T11:21:31;14.10;99.90
30001;DHT22;16845;48.670;9.000;2023-04-24T11:23:58;13.80;99.90
30001;DHT22;16845;48.670;9.000;2023-04-24T11:26:25;13.40;99.50
30001;DHT22;16845;48.670;9.000;2023-04-24T11:28:52;13.00;99.90
30001;DHT22;16845;48.670;9.000;2023-04-24T11:31:39;12.60;99.90
30001;DHT22;16845;48.670;9.000;2023-04-24T11:34:10;12.60;99.90
30001;DHT22;16845;48.670;9.000;2023-04-24T11:36:37;12.70;99.90
30001;DHT22;16845;48.670;9.000;2023-04-24T11:39:04;12.80;99.90
30001;DHT22;16845;48.670;9.000;2023-04-24T11:41:32;12.90;99.90
30001;DHT22;16845;48.670;9.000;2023-04-24T11:43:59;13.00;99.90
30001;DHT22;16845;48.670;9.000;2023-04-24T11:46:30;12.90;99.90
30001;DHT22;16845;48.670;9.000;2023-04-24T11:48:59;13.00;99.90
30001;DHT22;16845;48.670;9.000;2023-04-24T11:51:27;13.20;99.90
30001;DHT22;16845;48.670;9.000;2023-04-24T11:54:07;13.50;99.90
30001;DHT22;16845;48.670;9.000;2023-04-24T11:56:33;13.80;99.90
30001;DHT22;16845;48.670;9.000;2023-04-24T11:59:04;14.10;99.90
30001;DHT22;16845;48.670;9.000;2023-04-24T12:01:42;13.80;99.90
30001;DHT22;16845;48.670;9.000;2023-04-24T12:04:11;13.40;99.90
30001;DHT22;16845;48.670;9.000;2023-04-24T12:06:38;12.90;99.90
30001;DHT22;16845;48.670;9.000;2023-04-24T12:09:05;12.40;99.90
30001;DHT22;16845;48.670;9.000;2023-04-24T12:11:52;12.20;99.90
30001;DHT22;16845;48.670;9.000;2023-04-24T12:14:19;12.10;99.90
30001;DHT22;16845;48.670;9.000;2023-04-24T12:16:47;12.20;99.90
30001;DHT22;16845;48.670;9.000;2023-04-24T12:19:20;12.20;99.90
30001;DHT22;16845;48.670;9.000;2023-04-24T12:21:59;12.20;99.90
30001;DHT22;16845;48.670;9.000;2023-04-24T12:24:26;12.40;99.90
30001;DHT22;16845;48.670;9.000;2023-04-24T12:26:53;12.70;99.90
30001;DHT22;16845;48.670;9.000;2023-04-24T12:29:20;13.00;99.90
30001;DHT22;16845;48.670;9.000;2023-04-24T12:31:47;12.90;99.90
30001;DHT22;16845;48.670;9.000;2023-04-24T12:34:19;12.90;99.90
30001;DHT22;16845;48.670;9.000;2023-04-24T12:36:46;12.90;99.90
30001;DHT22;16845;48.670;9.000;2023-04-24T12:39:16;13.60;99.90
30001;DHT22;16845;48.670;9.000;2023-04-24T12:41:50;14.30;99.90
30001;DHT22;16845;48.670;9.000;2023-04-24T12:44:20;14.50;99.90
30001;DHT22;16845;48.670;9.000;2023-04-24T12:46:54;15.40;99.90
30001;DHT22;16845;48.670;9.000;2023-04-24T12:49:22;15.20;99.90
30001;DHT22;16845;48.670;9.000;2023-04-24T12:51:49;14.70;99.90
30001;DHT22;16845;48.670;9.000;2023-04-24T12:54:16;14.00;99.90
30001;DHT22;16845;48.670;9.000;2023-04-24T12:56:43;13.70;99.90
30001;DHT22;16845;48.670;9.000;2023-04-24T12:59:09;13.50;99.90
30001;DHT22;16845;48.670;9.000;2023-04-24T13:01:36;13.50;99.90
30001;DHT22;16845;48.670;9.000;2023-04-24T13:04:03;13.10;99.90
30001;DHT22;16845;48.670;9.000;2023-04-24T13:06:31;13.00;99.90
30001;DHT22;16845;48.670;9.000;2023-04-24T13:08:58;12.80;99.90
30001;DHT22;16845;48.670;9.000;2023-04-24T13:11:25;12.50;99.90
30001;DHT22;16845;48.670;9.000;2023-04-24T13:13:51;12.50;99.90
30001;DHT22;16845;48.670;9.000;2023-04-24T13:16:21;12.50;99.90
30001;DHT22;16845;48.670;9.000;2023-04-24T13:18:47;12.50;99.90
30001;DHT22;16845;48.670;9.000;2023-04-24T13:21:14;12.20;99.90
30001;DHT22;16845;48.670;9.000;2023-04-24T13:23:42;12.10;99.90
30001;DHT22;16845;48.670;9.000;2023-04-24T13:26:09;11.80;99.90
30001;DHT22;16845;48.670;9.000;2023-04-24T13:28:36;11.60;99.90
30001;DHT22;16845;48.670;9.000;2023-04-24T13:31:03;11.40;99.90
30001;DHT22;16845;48.670;9.000;2023-04-24T13:33:29;11.30;99.90
30001;DHT22;16845;48.670;9.000;2023-04-24T13:35:56;11.20;99.90
30001;DHT22;16845;48.670;9.000;2023-04-24T13:38:23;11.10;99.90
30001;DHT22;16845;48.670;9.000;2023-04-24T13:40:51;10.80;99.90
30001;DHT22;16845;48.670;9.000;2023-04-24T13:43:18;10.80;99.90
30001;DHT22;16845;48.670;9.000;2023-04-24T13:45:45;10.90;99.90
30001;DHT22;16845;48.670;9.000;2023-04-24T13:48:11;11.30;99.90
30001;DHT22;16845;48.670;9.000;2023-04-24T13:50:38;11.80;99.90
30001;DHT22;16845;48.670;9.000;2023-04-24T13:53:05;12.10;99.90
30001;DHT22;16845;48.670;9.000;2023-04-24T13:55:32;12.10;99.90
30001;DHT22;16845;48.670;9.000;2023-04-24T13:58:00;12.20;99.90
30001;DHT22;16845;48.670;9.000;2023-04-24T14:00:27;12.10;99.90
30001;DHT22;16845;48.670;9.000;2023-04-24T14:02:54;12.00;99.90
30001;DHT22;16845;48.670;9.000;2023-04-24T14:05:21;12.00;99.90
30001;DHT22;16845;48.670;9.000;2023-04-24T14:07:48;11.90;99.90
30001;DHT22;16845;48.670;9.000;2023-04-24T14:10:14;11.90;99.90
30001;DHT22;16845;48.670;9.000;2023-04-24T14:12:41;11.60;99.90
30001;DHT22;16845;48.670;9.000;2023-04-24T14:15:10;11.30;99.90
30001;DHT22;16845;48.670;9.000;2023-04-24T14:17:37;11.10;99.90
30001;DHT22;16845;48.670;9.000;2023-04-24T14:20:05;10.80;99.90
30001;DHT22;16845;48.670;9.000;2023-04-24T14:22:32;10.80;99.90
30001;DHT22;16845;48.670;9.000;2023-04-24T14:24:59;11.00;99.90
30001;DHT22;16845;48.670;9.000;2023-04-24T14:27:26;11.40;99.90
30001;DHT22;16845;48.670;9.000;2023-04-24T14:29:53;11.90;99.90
30001;DHT22;16845;48.670;9.000;2023-04-24T14:32:21;12.20;99.90
30001;DHT22;16845;48.670;9.000;2023-04-24T14:34:47;12.40;99.90
30001;DHT22;16845;48.670;9.000;2023-04-24T14:37:14;12.60;99.90
30001;DHT22;16845;48.670;9.000;2023-04-24T14:39:41;12.70;99.90
30001;DHT22;16845;48.670;9.000;2023-04-24T14:42:11;12.60;99.90
30001;DHT22;16845;48.670;9.000;2023-04-24T14:44:38;13.00;99.90
30001;DHT22;16845;48.670;9.000;2023-04-24T14:47:05;14.10;99.90
30001;DHT22;16845;48.670;9.000;2023-04-24T14:49:33;15.20;99.90
30001;DHT22;16845;48.670;9.000;2023-04-24T14:52:00;16.70;99.90
30001;DHT22;16845;48.670;9.000;2023-04-24T14:54:27;16.50;99.90
30001;DHT22;16845;48.670;9.000;2023-04-24T14:56:54;16.00;99.90
30001;DHT22;16845;48.670;9.000;2023-04-24T14:59:21;15.30;99.90
30001;DHT22;16845;48.670;9.000;2023-04-24T15:01:47;14.00;99.90
30001;DHT22;16845;48.670;9.000;2023-04-24T15:04:14;14.20;99.90
30001;DHT22;16845;48.670;9.000;2023-04-24T15:06:43;14.30;99.90
30001;DHT22;16845;48.670;9.000;2023-04-24T15:09:09;13.80;99.90
30001;DHT22;16845;48.670;9.000;2023-04-24T15:11:36;13.20;99.90
30001;DHT22;16845;48.670;9.000;2023-04-24T15:14:03;13.00;99.90
30001;DHT22;16845;48.670;9.000;2023-04-24T15:16:31;12.90;99.90
30001;DHT22;16845;48.670;9.000;2023-04-24T15:18:58;12.40;99.90
30001;DHT22;16845;48.670;9.000;2023-04-24T15:21:25;12.10;99.90
30001;DHT22;16845;48.670;9.000;2023-04-24T15:23:53;11.80;99.90
30001;DHT22;16845;48.670;9.000;2023-04-24T15:26:19;11.50;99.90
30001;DHT22;16845;48.670;9.000;2023-04-24T15:28:46;11.30;99.90
30001;DHT22;16845;48.670;9.000;2023-04-24T15:31:13;11.30;99.90
30001;DHT22;16845;48.670;9.000;2023-04-24T15:33:40;11.40;99.90
30001;DHT22;16845;48.670;9.000;2023-04-24T15:36:07;11.40;99.90
30001;DHT22;16845;48.670;9.000;2023-04-24T15:38:34;11.60;99.90